createdAt,value
2016-12-11T10:58:31.180Z,920.93
2016-12-11T10:59:42.366Z,920.85
2016-12-11T11:00:53.556Z,920.98
2016-12-11T11:02:04.705Z,920.93
2016-12-11T11:03:15.851Z,921.01
2016-12-11T11:04:27.014Z,921.08
2016-12-11T11:05:38.191Z,921.1
2016-12-11T11:06:49.366Z,921
2016-12-11T11:08:00.497Z,920.93
2016-12-11T11:09:12.199Z,921.08
2016-12-11T11:10:23.349Z,921.05
2016-12-11T11:11:34.541Z,920.98
2016-12-11T11:12:45.713Z,921.04
2016-12-11T11:13:57.417Z,920.9
2016-12-11T11:15:08.571Z,921.01
2016-12-11T11:16:19.722Z,921.08
2016-12-11T11:17:31.411Z,921.11
2016-12-11T11:18:42.564Z,921.14
2016-12-11T11:19:53.692Z,921.17
2016-12-11T11:21:04.834Z,921.12
2016-12-11T11:22:15.995Z,921.08
2016-12-11T11:23:27.194Z,921.12
2016-12-11T11:24:38.340Z,921.13
2016-12-11T11:25:49.483Z,921.21
2016-12-11T11:27:01.215Z,921.07
2016-12-11T11:28:12.913Z,921.19
2016-12-11T11:29:24.033Z,921.18
2016-12-11T11:30:35.177Z,921.01
2016-12-11T11:31:46.317Z,921.19
2016-12-11T11:32:57.465Z,921.14
2016-12-11T11:34:08.622Z,921.15
2016-12-11T11:35:20.368Z,921.14
2016-12-11T11:36:31.538Z,921.17
2016-12-11T11:37:42.700Z,921.22
2016-12-11T11:38:53.872Z,921.36
2016-12-11T11:40:05.054Z,921.18
2016-12-11T11:41:16.208Z,921.3
2016-12-11T11:42:27.362Z,921.25
2016-12-11T11:43:38.542Z,921.37
2016-12-11T11:44:49.730Z,921.34
2016-12-11T11:46:00.882Z,921.28
2016-12-11T11:47:12.043Z,921.35
2016-12-11T11:48:23.196Z,921.34
2016-12-11T11:49:34.341Z,921.32
2016-12-11T11:50:45.504Z,921.26
2016-12-11T11:51:56.648Z,921.29
2016-12-11T11:53:07.804Z,921.31
2016-12-11T11:54:18.929Z,921.25
2016-12-11T11:55:30.065Z,921.37
2016-12-11T11:56:41.216Z,921.3
2016-12-11T11:57:52.384Z,921.35
2016-12-11T11:59:03.814Z,921.29
2016-12-11T12:00:17.473Z,921.44
2016-12-11T12:01:28.633Z,921.32
2016-12-11T12:02:39.789Z,921.32
2016-12-11T12:03:50.961Z,921.4
2016-12-11T12:05:02.109Z,921.51
2016-12-11T12:06:13.243Z,921.43
2016-12-11T12:07:24.402Z,921.39
2016-12-11T12:08:35.553Z,921.47
2016-12-11T12:09:46.710Z,921.52
2016-12-11T12:10:57.839Z,921.42
2016-12-11T12:12:08.972Z,921.41
2016-12-11T12:13:20.124Z,921.58
2016-12-11T12:14:31.291Z,921.54
2016-12-11T12:15:42.473Z,921.2
2016-12-11T12:16:53.634Z,921.57
2016-12-11T12:18:04.780Z,921.54
2016-12-11T12:19:15.923Z,921.58
2016-12-11T12:20:27.385Z,921.63
2016-12-11T12:21:38.529Z,921.62
2016-12-11T12:22:49.692Z,921.66
2016-12-11T12:24:00.849Z,921.4
2016-12-11T12:25:12.021Z,921.72
2016-12-11T12:26:23.206Z,921.59
2016-12-11T12:27:34.373Z,921.66
2016-12-11T12:28:45.548Z,921.74
2016-12-11T12:29:56.689Z,921.76
2016-12-11T12:31:08.441Z,921.71
2016-12-11T12:32:19.615Z,921.75
2016-12-11T12:33:30.778Z,921.81
2016-12-11T12:34:41.949Z,921.69
2016-12-11T12:35:53.108Z,921.71
2016-12-11T12:37:04.282Z,921.8
2016-12-11T12:38:15.403Z,921.77
2016-12-11T12:39:26.558Z,921.75
2016-12-11T12:40:37.707Z,921.71
2016-12-11T12:41:48.860Z,921.61
2016-12-11T12:43:00.012Z,921.71
2016-12-11T12:44:11.177Z,921.77
2016-12-11T12:45:22.339Z,921.92
2016-12-11T12:46:33.488Z,921.77
2016-12-11T12:47:44.673Z,921.82
2016-12-11T12:48:56.386Z,921.8
2016-12-11T12:50:07.564Z,921.79
2016-12-11T12:51:18.729Z,921.79
2016-12-11T12:52:29.907Z,921.87
2016-12-11T12:53:41.056Z,921.88
2016-12-11T12:54:52.211Z,921.87
2016-12-11T12:56:03.380Z,921.89
2016-12-11T12:57:14.560Z,921.75
2016-12-11T12:58:26.269Z,921.74
2016-12-11T12:59:37.651Z,921.9
2016-12-11T13:00:50.528Z,921.84
2016-12-11T13:02:01.656Z,921.73
2016-12-11T13:03:12.808Z,921.84
2016-12-11T13:04:24.021Z,921.74
2016-12-11T13:05:35.180Z,921.86
2016-12-11T13:06:46.319Z,921.85
2016-12-11T13:07:57.492Z,921.89
2016-12-11T13:09:08.647Z,921.9
2016-12-11T13:10:19.817Z,921.86
2016-12-11T13:11:30.974Z,921.88
2016-12-11T13:12:42.133Z,921.94
2016-12-11T13:13:53.343Z,921.7
2016-12-11T13:15:04.490Z,921.88
2016-12-11T13:16:15.602Z,921.92
2016-12-11T13:17:26.741Z,921.81
2016-12-11T13:18:37.888Z,921.88
2016-12-11T13:19:49.052Z,921.78
2016-12-11T13:21:00.219Z,921.92
2016-12-11T13:22:11.394Z,921.85
2016-12-11T13:23:22.582Z,921.82
2016-12-11T13:24:33.732Z,921.88
2016-12-11T13:25:44.863Z,921.85
2016-12-11T13:26:56.020Z,921.82
2016-12-11T13:28:07.152Z,921.88
2016-12-11T13:29:18.296Z,922.01
2016-12-11T13:30:29.448Z,921.92
2016-12-11T13:31:40.591Z,921.86
2016-12-11T13:32:51.747Z,921.85
2016-12-11T13:34:03.476Z,921.82
2016-12-11T13:35:14.650Z,921.85
2016-12-11T13:36:25.797Z,921.86
2016-12-11T13:37:36.956Z,921.93
2016-12-11T13:38:48.128Z,921.87
2016-12-11T13:39:59.299Z,921.79
2016-12-11T13:41:10.481Z,921.88
2016-12-11T13:42:21.642Z,921.9
2016-12-11T13:43:32.779Z,921.85
2016-12-11T13:44:43.926Z,921.94
2016-12-11T13:45:55.083Z,921.62
2016-12-11T13:47:06.268Z,921.82
2016-12-11T13:48:17.461Z,921.84
2016-12-11T13:49:28.632Z,921.79
2016-12-11T13:50:39.764Z,921.77
2016-12-11T13:51:50.924Z,921.96
2016-12-11T13:53:02.081Z,921.86
2016-12-11T13:54:13.239Z,921.78
2016-12-11T13:55:24.385Z,921.68
2016-12-11T13:56:35.513Z,921.9
2016-12-11T13:57:46.675Z,921.94
2016-12-11T13:58:57.835Z,921.92
2016-12-11T14:00:09.581Z,921.96
2016-12-11T14:01:20.729Z,921.93
2016-12-11T14:02:31.878Z,921.92
2016-12-11T14:03:43.039Z,921.89
2016-12-11T14:04:54.201Z,921.95
2016-12-11T14:06:05.402Z,921.79
2016-12-11T14:07:16.541Z,921.91
2016-12-11T14:08:27.677Z,921.88
2016-12-11T14:09:38.834Z,921.91
2016-12-11T14:10:50.013Z,921.94
2016-12-11T14:12:01.181Z,921.77
2016-12-11T14:13:12.327Z,921.83
2016-12-11T14:14:23.505Z,921.88
2016-12-11T14:15:34.651Z,921.82
2016-12-11T14:16:45.802Z,921.98
2016-12-11T14:17:56.943Z,921.84
2016-12-11T14:19:08.130Z,921.77
2016-12-11T14:20:19.257Z,921.88
2016-12-11T14:21:30.409Z,921.84
2016-12-11T14:22:41.578Z,921.82
2016-12-11T14:23:52.735Z,921.8
2016-12-11T14:25:03.901Z,921.85
2016-12-11T14:26:15.047Z,921.83
2016-12-11T14:27:26.202Z,921.8
2016-12-11T14:28:37.345Z,921.72
2016-12-11T14:29:48.500Z,921.78
2016-12-11T14:30:59.677Z,921.73
2016-12-11T14:32:10.835Z,921.75
2016-12-11T14:33:22.025Z,921.7
2016-12-11T14:34:33.210Z,921.71
2016-12-11T14:35:44.361Z,921.63
2016-12-11T14:36:55.520Z,921.6
2016-12-11T14:38:06.695Z,921.62
2016-12-11T14:39:17.862Z,921.6
2016-12-11T14:40:29.009Z,921.62
2016-12-11T14:41:40.174Z,921.6
2016-12-11T14:42:51.333Z,921.56
2016-12-11T14:44:02.480Z,921.54
2016-12-11T14:45:13.651Z,921.51
2016-12-11T14:46:24.816Z,921.56
2016-12-11T14:47:36.000Z,921.62
2016-12-11T14:48:47.158Z,921.61
2016-12-11T14:49:58.313Z,921.55
2016-12-11T14:51:09.490Z,921.5
2016-12-11T14:52:20.623Z,921.48
2016-12-11T14:54:12.183Z,921.45
2016-12-11T14:55:23.361Z,921.45
2016-12-11T14:56:34.521Z,921.39
2016-12-11T14:57:45.678Z,921.39
2016-12-11T14:58:56.840Z,921.37
2016-12-11T15:00:07.989Z,921.29
2016-12-11T15:01:19.138Z,921.29
2016-12-11T15:02:30.288Z,921.22
2016-12-11T15:03:41.437Z,921.23
2016-12-11T15:04:52.594Z,921.23
2016-12-11T15:06:04.308Z,921.27
2016-12-11T15:07:15.495Z,921.21
2016-12-11T15:08:26.638Z,921.13
2016-12-11T15:09:37.798Z,921.17
2016-12-11T15:10:48.950Z,921.17
2016-12-11T15:12:00.100Z,921.12
2016-12-11T15:13:11.292Z,921.17
2016-12-11T15:14:22.476Z,921.13
2016-12-11T15:15:33.621Z,921.19
2016-12-11T15:16:44.829Z,921.13
2016-12-11T15:17:55.998Z,921.08
2016-12-11T15:19:07.186Z,921
2016-12-11T15:20:18.314Z,920.95
2016-12-11T15:21:29.454Z,920.97
2016-12-11T15:22:40.590Z,920.96
2016-12-11T15:23:51.741Z,920.93
2016-12-11T15:25:02.919Z,920.94
2016-12-11T15:26:14.079Z,920.86
2016-12-11T15:27:25.236Z,920.88
2016-12-11T15:28:36.367Z,920.8
2016-12-11T15:29:47.552Z,920.81
2016-12-11T15:30:58.728Z,920.79
2016-12-11T15:32:09.885Z,920.72
2016-12-11T15:33:21.057Z,920.74
2016-12-11T15:34:32.214Z,920.77
2016-12-11T15:35:43.377Z,920.75
2016-12-11T15:36:54.551Z,920.68
2016-12-11T15:38:05.720Z,920.63
2016-12-11T15:39:16.869Z,920.57
2016-12-11T15:40:28.014Z,920.66
2016-12-11T15:41:39.168Z,920.63
2016-12-11T15:42:50.890Z,920.56
2016-12-11T15:45:03.277Z,920.59
2016-12-11T15:46:14.460Z,920.56
2016-12-11T15:47:25.661Z,920.57
2016-12-11T15:48:36.813Z,920.5
2016-12-11T15:49:47.974Z,920.42
2016-12-11T15:50:59.157Z,920.39
2016-12-11T15:52:10.341Z,920.35
2016-12-11T15:53:21.525Z,920.39
2016-12-11T15:54:32.667Z,920.39
2016-12-11T15:55:43.805Z,920.37
2016-12-11T15:56:54.961Z,920.35
2016-12-11T15:58:06.154Z,920.3
2016-12-11T15:59:17.331Z,920.3
2016-12-11T16:00:28.522Z,920.2
2016-12-11T16:01:39.683Z,920.24
2016-12-11T16:02:50.839Z,920.15
2016-12-11T16:04:01.981Z,920.2
2016-12-11T16:05:13.736Z,920.15
2016-12-11T16:06:24.872Z,920.18
2016-12-11T16:07:36.024Z,920.12
2016-12-11T16:08:47.194Z,920.05
2016-12-11T16:09:58.397Z,920.05
2016-12-11T16:11:09.582Z,920.06
2016-12-11T16:12:20.738Z,920
2016-12-11T16:13:31.912Z,920.06
2016-12-11T16:14:43.055Z,920.03
2016-12-11T16:15:54.185Z,919.99
2016-12-11T16:17:05.902Z,920.06
2016-12-11T16:18:17.055Z,920
2016-12-11T16:19:28.212Z,919.98
2016-12-11T16:20:39.377Z,919.96
2016-12-11T16:21:50.574Z,919.88
2016-12-11T16:23:01.756Z,919.88
2016-12-11T16:24:12.927Z,919.82
2016-12-11T16:25:24.108Z,919.78
2016-12-11T16:26:35.292Z,919.78
2016-12-11T16:27:46.459Z,919.78
2016-12-11T16:28:57.616Z,919.78
2016-12-11T16:30:08.794Z,919.72
2016-12-11T16:31:20.544Z,919.71
2016-12-11T16:32:31.699Z,919.76
2016-12-11T16:33:42.875Z,919.75
2016-12-11T16:34:54.039Z,919.76
2016-12-11T16:36:05.193Z,919.68
2016-12-11T16:37:24.994Z,919.69
2016-12-11T16:38:36.137Z,919.72
2016-12-11T16:39:47.286Z,919.7
2016-12-11T16:40:58.417Z,919.75
2016-12-11T16:42:09.553Z,919.86
2016-12-11T16:43:21.288Z,920.09
2016-12-11T16:44:32.454Z,920.24
2016-12-11T16:45:43.624Z,920.07
2016-12-11T16:46:54.792Z,920.11
2016-12-11T16:48:05.964Z,920.29
2016-12-11T16:49:17.119Z,920.08
2016-12-11T16:50:28.292Z,920.03
2016-12-11T16:51:39.439Z,920.02
2016-12-11T16:52:50.578Z,920.06
2016-12-11T16:54:01.737Z,920.08
2016-12-11T16:55:12.885Z,919.97
2016-12-11T16:56:24.043Z,919.99
2016-12-11T16:57:35.175Z,919.88
2016-12-11T16:58:46.875Z,919.84
2016-12-11T16:59:58.029Z,919.9
2016-12-11T19:56:49.987Z,919.59
2016-12-11T19:58:01.167Z,919.62
2016-12-11T19:59:12.326Z,919.64
2016-12-11T20:00:23.501Z,919.67
2016-12-11T20:01:34.641Z,919.76
2016-12-11T20:02:45.806Z,919.73
2016-12-11T20:03:56.979Z,919.77
2016-12-11T20:05:08.153Z,919.75
2016-12-11T20:06:19.317Z,919.76
2016-12-11T20:07:30.496Z,919.77
2016-12-11T20:08:41.645Z,919.78
2016-12-11T20:09:52.810Z,919.81
2016-12-11T20:11:03.962Z,919.83
2016-12-11T20:12:15.099Z,919.81
2016-12-11T20:13:26.261Z,919.74
2016-12-11T20:14:38.022Z,919.74
2016-12-11T20:15:49.217Z,919.71
2016-12-11T20:17:00.367Z,919.72
2016-12-11T20:18:11.529Z,919.67
2016-12-11T20:19:23.264Z,919.68
2016-12-11T20:20:34.388Z,919.66
2016-12-11T20:21:45.568Z,919.7
2016-12-11T20:22:56.972Z,919.67
2016-12-11T20:24:11.310Z,919.72
2016-12-11T20:25:22.461Z,919.75
2016-12-11T20:26:33.625Z,919.73
2016-12-11T20:27:44.785Z,919.69
2016-12-11T20:28:55.936Z,919.69
2016-12-11T20:30:07.121Z,919.7
2016-12-11T20:31:18.279Z,919.74
2016-12-11T20:32:29.453Z,919.73
2016-12-11T20:33:40.646Z,919.75
2016-12-11T20:34:51.818Z,919.77
2016-12-11T20:36:02.969Z,919.75
2016-12-11T20:37:14.128Z,919.77
2016-12-11T20:38:25.329Z,919.73
2016-12-11T20:39:41.415Z,919.72
2016-12-11T20:40:52.564Z,919.72
2016-12-11T20:42:03.691Z,919.72
2016-12-11T20:43:14.839Z,919.69
2016-12-11T20:44:25.970Z,919.7
2016-12-11T20:45:37.126Z,919.68
2016-12-11T20:46:48.308Z,919.65
2016-12-11T20:47:59.468Z,919.68
2016-12-11T20:49:10.608Z,919.65
2016-12-11T20:50:21.744Z,919.66
2016-12-11T20:51:32.896Z,919.65
2016-12-11T20:52:44.065Z,919.66
2016-12-11T20:53:55.214Z,919.62
2016-12-11T20:55:06.372Z,919.65
2016-12-11T20:56:17.546Z,919.63
2016-12-11T20:57:28.688Z,919.59
2016-12-11T20:58:39.825Z,919.57
2016-12-11T20:59:50.961Z,919.61
2016-12-11T21:01:02.670Z,919.57
2016-12-11T21:02:13.830Z,919.63
2016-12-11T21:03:24.993Z,919.62
2016-12-11T21:04:36.142Z,919.56
2016-12-11T21:05:47.324Z,919.55
2016-12-11T21:06:58.474Z,919.52
2016-12-11T21:08:09.598Z,919.51
2016-12-11T21:09:20.755Z,919.47
2016-12-11T21:10:31.876Z,919.4
2016-12-11T21:11:43.022Z,919.39
2016-12-11T21:12:54.174Z,919.35
2016-12-11T21:14:05.316Z,919.36
2016-12-11T21:15:16.470Z,919.34
2016-12-11T21:16:27.633Z,919.35
2016-12-11T21:17:39.365Z,919.39
2016-12-11T21:18:50.510Z,919.39
2016-12-11T21:20:01.672Z,919.42
2016-12-11T21:21:12.829Z,919.42
2016-12-11T21:22:24.015Z,919.42
2016-12-11T21:23:35.200Z,919.42
2016-12-11T21:24:46.349Z,919.42
2016-12-11T21:25:57.481Z,919.38
2016-12-11T21:27:08.626Z,919.38
2016-12-11T21:28:19.761Z,919.38
2016-12-11T21:29:30.950Z,919.37
2016-12-11T21:30:42.137Z,919.41
2016-12-11T21:31:53.306Z,919.38
2016-12-11T21:33:05.003Z,919.37
2016-12-11T21:34:16.176Z,919.36
2016-12-11T21:35:27.335Z,919.38
2016-12-11T21:36:38.490Z,919.37
2016-12-11T21:37:49.627Z,919.34
2016-12-11T21:39:00.760Z,919.32
2016-12-11T21:40:11.916Z,919.34
2016-12-11T21:41:23.104Z,919.37
2016-12-11T21:42:34.287Z,919.39
2016-12-11T21:43:45.435Z,919.35
2016-12-11T21:44:56.583Z,919.36
2016-12-11T21:46:07.742Z,919.38
2016-12-11T21:47:18.901Z,919.42
2016-12-11T21:48:30.104Z,919.48
2016-12-11T21:49:41.241Z,919.51
2016-12-11T21:50:52.374Z,919.54
2016-12-11T21:52:03.530Z,919.49
2016-12-11T21:53:14.706Z,919.47
2016-12-11T21:54:25.876Z,919.49
2016-12-11T21:55:37.023Z,919.51
2016-12-11T21:56:48.196Z,919.51
2016-12-11T21:57:59.338Z,919.59
2016-12-11T21:59:10.483Z,919.63
2016-12-11T22:00:21.620Z,919.66
2016-12-11T22:01:32.775Z,919.68
2016-12-11T22:02:43.900Z,919.74
2016-12-11T22:03:55.077Z,919.81
2016-12-11T22:05:06.247Z,919.83
2016-12-11T22:06:17.378Z,919.88
2016-12-11T22:07:28.532Z,919.88
2016-12-11T22:08:39.679Z,919.89
2016-12-11T22:09:50.839Z,919.91
2016-12-11T22:11:02.016Z,919.89
2016-12-11T22:12:13.153Z,919.91
2016-12-11T22:13:24.302Z,919.94
2016-12-11T22:14:35.458Z,919.95
2016-12-11T22:15:46.644Z,919.93
2016-12-11T22:16:57.830Z,919.9
2016-12-11T22:18:08.989Z,919.9
2016-12-11T22:19:20.152Z,919.91
2016-12-11T22:20:31.318Z,919.99
2016-12-11T22:21:42.486Z,920.02
2016-12-11T22:22:53.634Z,920.11
2016-12-11T22:24:04.796Z,920.15
2016-12-11T22:25:15.954Z,920.22
2016-12-11T22:26:27.094Z,920.26
2016-12-11T22:27:38.261Z,920.27
2016-12-11T22:28:49.422Z,920.26
2016-12-11T22:30:00.600Z,920.24
2016-12-11T22:31:11.750Z,920.31
2016-12-11T22:32:22.899Z,920.29
2016-12-11T22:33:34.072Z,920.36
2016-12-11T22:34:45.194Z,920.32
2016-12-11T22:35:56.338Z,920.38
2016-12-11T22:37:07.506Z,920.37
2016-12-11T22:38:18.662Z,920.44
2016-12-11T22:39:29.803Z,920.44
2016-12-11T22:40:40.952Z,920.5
2016-12-11T22:41:52.089Z,920.52
2016-12-11T22:43:03.224Z,920.46
2016-12-11T22:44:14.371Z,920.49
2016-12-11T22:45:25.517Z,920.48
2016-12-11T22:46:36.670Z,920.47
2016-12-11T22:47:47.807Z,920.54
2016-12-11T22:48:58.986Z,920.56
2016-12-11T22:50:10.122Z,920.57
2016-12-11T22:51:21.276Z,920.58
2016-12-11T22:52:32.976Z,920.63
2016-12-11T22:53:44.107Z,920.66
2016-12-11T22:54:55.287Z,920.7
2016-12-11T22:56:06.462Z,920.71
2016-12-11T22:57:17.602Z,920.71
2016-12-11T22:58:28.800Z,920.72
2016-12-11T22:59:39.952Z,920.7
2016-12-11T23:00:51.129Z,920.7
2016-12-11T23:02:02.277Z,920.66
2016-12-11T23:03:13.411Z,920.64
2016-12-11T23:04:24.572Z,920.62
2016-12-11T23:05:35.715Z,920.6
2016-12-11T23:06:46.887Z,920.58
2016-12-11T23:07:58.033Z,920.58
2016-12-11T23:09:09.189Z,920.56
2016-12-11T23:10:20.304Z,920.49
2016-12-11T23:11:31.489Z,920.49
2016-12-11T23:12:42.654Z,920.5
2016-12-11T23:13:54.361Z,920.52
2016-12-11T23:15:05.521Z,920.55
2016-12-11T23:16:16.662Z,920.54
2016-12-11T23:17:27.819Z,920.59
2016-12-11T23:18:38.977Z,920.6
2016-12-11T23:19:50.133Z,920.59
2016-12-11T23:21:01.276Z,920.62
2016-12-11T23:22:12.407Z,920.61
2016-12-11T23:23:23.549Z,920.59
2016-12-11T23:24:34.696Z,920.59
2016-12-11T23:25:45.835Z,920.62
2016-12-11T23:26:56.986Z,920.64
2016-12-11T23:28:08.143Z,920.62
2016-12-11T23:29:19.297Z,920.66
2016-12-11T23:30:30.453Z,920.71
2016-12-11T23:31:41.583Z,920.74
2016-12-11T23:32:52.722Z,920.78
2016-12-11T23:34:03.864Z,920.81
2016-12-11T23:35:15.015Z,920.81
2016-12-11T23:36:26.210Z,920.86
2016-12-11T23:37:37.343Z,920.94
2016-12-11T23:38:48.501Z,920.96
2016-12-11T23:39:59.657Z,920.98
2016-12-11T23:41:10.811Z,920.96
2016-12-11T23:42:21.940Z,920.98
2016-12-11T23:43:33.105Z,920.97
2016-12-11T23:44:44.247Z,920.97
2016-12-11T23:45:55.418Z,921
2016-12-11T23:47:06.562Z,921
2016-12-11T23:48:17.729Z,921.06
2016-12-11T23:49:28.896Z,921.05
2016-12-11T23:50:40.039Z,921.08
2016-12-11T23:51:51.179Z,921.13
2016-12-11T23:53:02.344Z,921.17
2016-12-11T23:54:13.489Z,921.17
2016-12-11T23:55:24.622Z,921.16
2016-12-11T23:56:35.759Z,921.14
2016-12-11T23:57:46.904Z,921.09
2016-12-11T23:58:58.049Z,921.17
